首页
METAR-TAF:

METAR-TAF

机场 :

凯奇凯梅特, 匈牙利

纬度: 46-55N, 经度: 019-45E, 海拔: 113米

当前天气观测

该预报发布于16分钟前的17:15 UTC
风速4节,风向东南
温度 0°C
湿度 100%
气压 1046 hPa
能見度: 0500
散云层高于400英尺
多云层高于4500英尺

METAR: LHKE 201715Z 13004KT 0500 FG SCT004 BKN045 00/00 Q1046 R12/190095 TEMPO 0350 FZFG BKN003 RMK RED

时间: 18:31 (17:31 UTC)

预报

该预报发布于3小时和16分钟前的14:15 UTC
预报有效从20日的 15点(UTC)到 20日的 24点(UTC)
风速3节,风向多变
能見度: 0800
散云层高于4500英尺
冻雾, 雾
成为
从 20日的 15点(UTC)到 20日的 17点(UTC)
能見度: 0600
少量云层高于800英尺
冻雾
短暂存在
从 20日的 17点(UTC)到 20日的 24点(UTC)
能見度: 0350
多云层高于200英尺
冻雾
几率 40% :
短暂存在
从 20日的 21点(UTC)到 20日的 24点(UTC)
能見度: 0150
层高于200英尺
冻雾

TAF: LHKE 201415Z 2015/2024 VRB03KT 0800 FZFG FG SCT045 BECMG 2015/2017 0600 FZFG FEW008 TEMPO 2017/2024 0350 FZFG BKN002 PROB40 TEMPO 2021/2024 0150 FZFG VV002

超过4000个机场的气象观测和天气预报(METAR&TAF报告)。

可查询的气象台以黄色和红色小点在地图上表示。

将鼠标移到小点上方,可查看气象台名称。

然后点击查看天气观测和预报。

如需切换地图:点击带黑十字的绿色按钮放大地图;点击带横线的绿色按钮缩小地图;或者点击绿色箭头查看邻近地区的地图。


METAR-TAF: